Ana Sayfa
METAR-TAF:

METAR-TAF

Havaalanları :

Bağdat, Irak

Bağdat Uluslararası Havaalanı

Enlem: 33-15-45N, Boylam: 44-14-04E, yükseklik: 35 m

Güncel hava durumu gözlemi

Rapor saat 07:00 UTC de 42 dakika önce yapıldı.
Rüzgar batıdan 6 kt, batı/güneybatı ve kuzeybatı arasında değişken
Sıcaklık 25°C
Nem 39%
Basınç 1008 hPa
Görüş mesafesi: 9000 m
3000 ft yükseklikte parçalı çok bulutlu

METAR: ORBI 210700Z 28006KT 250V320 9000 BKN030 25/10 Q1008 NOSIG

Saat: 10:42 (07:42 UTC)

Tahmin

Rapor saat 04:00 UTC de 3 saat ve 42 dakika önce yapıldı.
Ayın 21'si saat 06 UTC'den ayın 22'si saat 06 UTC'ye kadar geçerli Tahmin
Rüzgar batıdan 6 kt
Görüş mesafesi: 6000 m
3000 ft yükseklikte parçalı çok bulutlu

TAF: ORBI 210400Z 2106/2206 27006KT 6000 BKN030

4.000'den fazla havaalanı için hava durumu gözlemleri ve tahminleri (METAR ve TAF raporları).

Kullanılabilir istasyonlar harita üzerinde sarı ve kırmızı noktalarla gösterilir.

İstasyonun adını görmek için fareyi noktanın üzerinde gezdirin.

Sonrasında hava gözlem ve tahminlerini görmek için tıklayın.

Haritayı değiştirmek için: yaklaştırmak için siyah artı işaretli yeşil düğmeye ve uzaklaştırmak için de eksi işaretli düğmeye hızla tıklayın; bitişik haritalar için yeşil okları kullanın.


METAR-TAF: